Time;durP1;ratioP1;P1;durP2;ratioP2;P2;SDS_P1;SDS_P2;PMS_P1;PMS_P2;Temp;Humidity;BMP_temperature;BMP_pressure;BME280_temperature;BME280_humidity;BME280_pressure;Samples;Min_cycle;Max_cycle;Signal;HPM_P1;HPM_P2
2023/12/25 00:00:04;;;;;;;1.50;0.73;;;9.40;96.60;;;;;;5048296;28;20637;-77
2023/12/25 00:02:32;;;;;;;0.77;0.60;;;9.40;96.70;;;;;;5040801;28;20677;-77
2023/12/25 00:04:58;;;;;;;0.60;0.50;;;9.30;96.50;;;;;;5044555;28;20628;-77
2023/12/25 00:07:25;;;;;;;0.60;0.60;;;9.30;96.50;;;;;;5048385;28;20718;-78
2023/12/25 00:09:52;;;;;;;0.73;0.60;;;9.30;96.70;;;;;;5049100;28;20627;-77
2023/12/25 00:12:20;;;;;;;0.40;0.30;;;9.30;96.20;;;;;;5042761;28;20700;-77
2023/12/25 00:14:47;;;;;;;0.90;0.70;;;9.30;96.20;;;;;;5043473;28;20958;-77
2023/12/25 00:17:14;;;;;;;0.40;0.40;;;9.30;96.00;;;;;;5046602;28;20986;-77
2023/12/25 00:19:41;;;;;;;0.60;0.60;;;9.30;96.10;;;;;;5043956;28;20642;-78
2023/12/25 00:22:08;;;;;;;0.67;0.67;;;9.30;95.90;;;;;;5035546;28;20624;-78
2023/12/25 00:24:35;;;;;;;1.90;0.80;;;9.20;96.30;;;;;;5049631;28;20773;-77
2023/12/25 00:27:05;;;;;;;0.97;0.63;;;9.20;96.00;;;;;;5058030;28;20828;-77
2023/12/25 00:29:33;;;;;;;0.57;0.50;;;9.20;96.20;;;;;;5052568;28;20625;-77
2023/12/25 00:32:00;;;;;;;0.73;0.33;;;9.20;96.20;;;;;;5055828;28;21196;-78
2023/12/25 00:34:26;;;;;;;1.97;1.20;;;9.20;95.80;;;;;;5046553;28;21150;-77
2023/12/25 00:36:53;;;;;;;0.50;0.50;;;9.20;95.90;;;;;;5061271;28;20642;-77
2023/12/25 00:39:20;;;;;;;1.73;0.60;;;9.20;95.80;;;;;;5051687;28;20614;-77
2023/12/25 00:41:47;;;;;;;0.70;0.63;;;9.30;95.50;;;;;;5058512;28;20613;-77
2023/12/25 00:44:14;;;;;;;0.63;0.60;;;9.30;95.70;;;;;;5052996;28;20715;-78
2023/12/25 00:46:42;;;;;;;0.57;0.57;;;9.20;96.00;;;;;;5057130;28;21187;-78
2023/12/25 00:49:10;;;;;;;0.70;0.37;;;9.20;95.70;;;;;;5046451;27;20646;-78
2023/12/25 00:51:36;;;;;;;0.70;0.70;;;9.20;95.60;;;;;;5052495;27;20731;-78
2023/12/25 00:54:03;;;;;;;1.03;0.70;;;9.20;95.40;;;;;;5051390;28;20626;-77
2023/12/25 00:56:30;;;;;;;1.00;0.67;;;9.20;95.40;;;;;;5047452;28;20726;-78
2023/12/25 00:58:57;;;;;;;0.40;0.30;;;9.30;95.30;;;;;;5047028;28;20623;-78
2023/12/25 01:01:23;;;;;;;0.47;0.40;;;9.20;95.20;;;;;;5047458;28;20637;-77
2023/12/25 01:03:51;;;;;;;0.50;0.40;;;9.20;95.50;;;;;;5049456;28;20668;-77
2023/12/25 01:06:18;;;;;;;0.60;0.57;;;9.20;95.20;;;;;;5045786;28;20625;-77
2023/12/25 01:08:45;;;;;;;0.53;0.53;;;9.30;95.30;;;;;;5048439;28;20750;-77
2023/12/25 01:11:12;;;;;;;0.80;0.47;;;9.30;94.70;;;;;;5045968;28;20637;-77
2023/12/25 01:13:39;;;;;;;1.07;0.50;;;9.30;95.00;;;;;;5042704;28;20627;-77
2023/12/25 01:16:06;;;;;;;0.80;0.40;;;9.30;94.90;;;;;;5042648;28;20682;-77
2023/12/25 01:18:33;;;;;;;0.57;0.57;;;9.30;94.40;;;;;;5045252;27;20624;-77
2023/12/25 01:21:01;;;;;;;0.60;0.60;;;9.30;94.50;;;;;;5041544;28;20630;-77
2023/12/25 01:23:28;;;;;;;0.30;0.30;;;9.30;94.70;;;;;;5039915;28;20678;-76
2023/12/25 01:25:54;;;;;;;0.50;0.50;;;9.20;94.60;;;;;;5044924;28;20634;-77
2023/12/25 01:28:21;;;;;;;0.50;0.43;;;9.20;94.50;;;;;;5058970;28;20631;-77
2023/12/25 01:30:48;;;;;;;0.40;0.33;;;9.20;94.40;;;;;;5053372;28;20622;-77
2023/12/25 01:33:15;;;;;;;1.10;0.63;;;9.10;94.60;;;;;;5056357;28;20632;-77
2023/12/25 01:35:41;;;;;;;1.00;0.70;;;9.10;94.80;;;;;;5042054;28;20674;-77
2023/12/25 01:38:09;;;;;;;1.10;0.50;;;9.20;94.30;;;;;;5053760;28;20627;-78
2023/12/25 01:40:36;;;;;;;0.70;0.30;;;9.20;94.20;;;;;;5046111;28;20621;-78
2023/12/25 01:43:04;;;;;;;1.10;0.73;;;9.20;94.30;;;;;;5051365;28;20778;-77
2023/12/25 01:45:30;;;;;;;1.23;0.50;;;9.10;93.90;;;;;;5051054;28;20633;-77
2023/12/25 01:47:57;;;;;;;0.43;0.30;;;9.10;93.70;;;;;;5045416;28;20630;-77
2023/12/25 01:50:24;;;;;;;1.23;0.40;;;9.20;93.90;;;;;;5045157;28;20677;-78
2023/12/25 01:52:52;;;;;;;0.70;0.70;;;9.10;94.20;;;;;;5052944;28;21068;-77
2023/12/25 01:55:21;;;;;;;0.43;0.43;;;9.10;93.90;;;;;;5045266;28;20624;-77
2023/12/25 01:57:47;;;;;;;0.73;0.70;;;9.10;93.80;;;;;;5045882;28;20629;-77
2023/12/25 02:00:15;;;;;;;0.40;0.40;;;9.20;93.50;;;;;;5047941;28;20745;-78
2023/12/25 02:02:43;;;;;;;0.60;0.53;;;9.10;93.80;;;;;;5044138;27;21278;-77
2023/12/25 02:05:11;;;;;;;0.60;0.60;;;9.10;93.40;;;;;;5043197;28;20631;-77
2023/12/25 02:07:39;;;;;;;0.40;0.30;;;9.10;93.30;;;;;;5043651;28;20949;-77
2023/12/25 02:10:08;;;;;;;2.30;0.70;;;9.20;93.40;;;;;;5043481;28;20623;-77
2023/12/25 02:12:36;;;;;;;0.50;0.40;;;9.10;93.40;;;;;;5043128;28;20628;-77
2023/12/25 02:15:03;;;;;;;0.87;0.60;;;9.10;93.50;;;;;;5046268;28;20641;-77
2023/12/25 02:17:31;;;;;;;0.40;0.40;;;9.10;93.40;;;;;;5038525;28;20634;-77
2023/12/25 02:19:59;;;;;;;0.70;0.67;;;9.10;93.00;;;;;;5041869;28;20630;-77
2023/12/25 02:22:26;;;;;;;1.10;0.57;;;9.10;93.20;;;;;;5044599;28;20947;-77
2023/12/25 02:25:00;;;;;;;0.40;0.40;;;9.10;93.10;;;;;;5041459;28;20683;-77
2023/12/25 02:27:28;;;;;;;0.40;0.33;;;9.10;93.20;;;;;;5039856;28;20635;-77
2023/12/25 02:29:56;;;;;;;1.17;0.50;;;9.10;93.00;;;;;;5041147;28;21194;-77
2023/12/25 02:32:24;;;;;;;0.50;0.40;;;9.10;92.80;;;;;;5060859;28;20630;-77
2023/12/25 02:34:51;;;;;;;0.40;0.40;;;9.10;93.10;;;;;;5050408;28;20632;-77
2023/12/25 02:37:19;;;;;;;2.63;0.70;;;9.10;93.20;;;;;;5052218;28;20623;-77
2023/12/25 02:39:46;;;;;;;1.10;0.77;;;9.10;93.40;;;;;;5046477;28;20630;-77
2023/12/25 02:42:14;;;;;;;0.60;0.40;;;9.10;92.70;;;;;;5044319;28;20631;-77
2023/12/25 02:44:43;;;;;;;0.40;0.33;;;9.10;93.00;;;;;;5058825;28;21133;-78
2023/12/25 02:47:11;;;;;;;0.60;0.33;;;9.10;92.70;;;;;;5056489;28;20658;-77
2023/12/25 02:49:38;;;;;;;0.57;0.40;;;9.00;92.50;;;;;;5056408;28;20623;-78
2023/12/25 02:52:05;;;;;;;1.80;0.57;;;9.00;92.50;;;;;;5055810;28;21035;-77
2023/12/25 02:54:32;;;;;;;0.73;0.70;;;9.00;92.50;;;;;;5048769;28;20632;-78
2023/12/25 02:57:00;;;;;;;1.00;0.57;;;9.00;92.60;;;;;;5053236;27;20630;-77
2023/12/25 02:59:27;;;;;;;1.50;0.43;;;9.00;92.70;;;;;;5039621;27;20722;-77
2023/12/25 03:01:56;;;;;;;0.60;0.50;;;9.00;92.80;;;;;;5045740;28;20622;-78
2023/12/25 03:04:24;;;;;;;0.50;0.50;;;9.00;92.50;;;;;;5046303;28;20662;-77
2023/12/25 03:06:51;;;;;;;1.20;0.47;;;9.00;92.60;;;;;;5050388;28;21324;-77
2023/12/25 03:09:18;;;;;;;1.33;0.77;;;9.00;92.40;;;;;;5046883;28;20619;-77
2023/12/25 03:11:46;;;;;;;0.50;0.43;;;9.00;92.40;;;;;;5043797;28;21152;-77
2023/12/25 03:14:13;;;;;;;0.50;0.40;;;8.90;92.30;;;;;;5047092;28;20663;-77
2023/12/25 03:16:41;;;;;;;0.60;0.30;;;8.90;92.20;;;;;;5048719;28;20766;-77
2023/12/25 03:19:09;;;;;;;0.80;0.33;;;8.90;92.40;;;;;;5044110;28;20618;-77
2023/12/25 03:21:37;;;;;;;0.47;0.47;;;8.90;92.40;;;;;;5044716;28;20642;-77
2023/12/25 03:24:06;;;;;;;0.70;0.70;;;8.90;92.10;;;;;;5070004;27;20666;-77
2023/12/25 03:26:33;;;;;;;0.70;0.40;;;8.90;91.90;;;;;;5092478;27;20636;-77
2023/12/25 03:29:01;;;;;;;0.87;0.50;;;9.00;91.90;;;;;;5083911;27;20615;-78
2023/12/25 03:31:30;;;;;;;0.50;0.50;;;9.00;91.90;;;;;;5083873;27;21037;-77
2023/12/25 03:33:58;;;;;;;0.60;0.60;;;9.00;91.70;;;;;;5064602;27;20625;-77
2023/12/25 03:36:27;;;;;;;1.00;0.50;;;9.00;91.90;;;;;;5090511;27;20968;-78
2023/12/25 03:38:55;;;;;;;0.73;0.73;;;9.00;91.90;;;;;;5064681;27;20629;-77
2023/12/25 03:41:21;;;;;;;1.07;0.60;;;9.10;91.50;;;;;;5047737;28;20628;-77
2023/12/25 03:43:49;;;;;;;6.00;0.83;;;9.10;91.90;;;;;;5050668;28;20667;-77
2023/12/25 03:46:17;;;;;;;0.43;0.30;;;9.00;91.80;;;;;;5044812;28;20658;-77
2023/12/25 03:48:46;;;;;;;0.50;0.40;;;9.10;91.30;;;;;;5045375;27;20646;-77
2023/12/25 03:51:14;;;;;;;0.67;0.60;;;9.10;91.60;;;;;;5051342;27;20715;-77
2023/12/25 03:53:43;;;;;;;0.60;0.60;;;9.00;91.70;;;;;;5040781;28;20625;-77
2023/12/25 03:56:11;;;;;;;0.30;0.30;;;9.00;91.80;;;;;;5041224;28;21170;-77
2023/12/25 03:58:38;;;;;;;1.23;0.70;;;9.10;91.30;;;;;;5042356;27;20626;-77
2023/12/25 04:01:05;;;;;;;0.77;0.40;;;9.10;91.40;;;;;;5039495;28;20713;-78
2023/12/25 04:03:31;;;;;;;1.33;0.50;;;9.10;90.90;;;;;;5047661;28;20664;-77
2023/12/25 04:05:58;;;;;;;0.63;0.40;;;9.20;90.80;;;;;;5051545;28;20726;-77
2023/12/25 04:08:25;;;;;;;0.43;0.43;;;9.20;90.90;;;;;;5060487;28;20973;-77
2023/12/25 04:10:53;;;;;;;0.50;0.50;;;9.20;90.70;;;;;;5046324;28;20665;-78
2023/12/25 04:13:20;;;;;;;0.60;0.50;;;9.20;90.70;;;;;;5059277;28;20634;-77
2023/12/25 04:15:47;;;;;;;1.40;0.47;;;9.20;90.40;;;;;;5050904;28;20638;-77
2023/12/25 04:18:13;;;;;;;0.40;0.30;;;9.10;90.60;;;;;;5053804;27;20642;-78
2023/12/25 04:20:40;;;;;;;0.87;0.37;;;9.20;90.40;;;;;;5047996;28;20637;-77
2023/12/25 04:23:07;;;;;;;0.93;0.83;;;9.20;90.40;;;;;;5050378;28;20622;-77
2023/12/25 04:25:34;;;;;;;0.40;0.30;;;9.10;90.50;;;;;;5056902;28;21250;-77
2023/12/25 04:28:02;;;;;;;0.50;0.40;;;9.10;90.50;;;;;;5047604;28;20701;-78
2023/12/25 04:30:29;;;;;;;0.53;0.50;;;9.10;90.50;;;;;;5048660;28;20650;-77
2023/12/25 04:32:55;;;;;;;2.77;1.43;;;9.00;90.70;;;;;;5053180;28;20821;-76
2023/12/25 04:35:22;;;;;;;0.60;0.40;;;9.10;90.30;;;;;;5046688;28;20634;-77
2023/12/25 04:37:49;;;;;;;0.67;0.47;;;9.10;90.20;;;;;;5053833;28;20683;-77
2023/12/25 04:40:16;;;;;;;0.40;0.37;;;9.10;90.60;;;;;;5046671;28;20634;-77
2023/12/25 04:42:42;;;;;;;0.50;0.50;;;9.00;90.10;;;;;;5046386;28;21128;-77
2023/12/25 04:45:11;;;;;;;0.50;0.30;;;9.10;90.10;;;;;;5041372;28;20662;-79
2023/12/25 04:47:38;;;;;;;0.40;0.30;;;9.00;90.00;;;;;;5068698;27;21043;-77
2023/12/25 04:50:04;;;;;;;1.00;0.77;;;9.10;90.30;;;;;;5052310;27;21057;-78
2023/12/25 04:52:31;;;;;;;2.10;0.80;;;9.00;90.30;;;;;;5043268;27;21164;-77
2023/12/25 04:54:58;;;;;;;0.70;0.70;;;9.00;90.40;;;;;;5036963;28;21163;-77
2023/12/25 04:57:25;;;;;;;0.90;0.67;;;9.00;90.20;;;;;;5045307;28;20637;-77
2023/12/25 04:59:52;;;;;;;1.37;0.60;;;9.00;90.00;;;;;;5038388;28;21290;-77
2023/12/25 05:02:20;;;;;;;0.73;0.50;;;9.00;90.40;;;;;;5038647;28;20701;-77
2023/12/25 05:04:46;;;;;;;0.40;0.30;;;8.90;90.10;;;;;;5049447;28;20669;-78
2023/12/25 05:07:13;;;;;;;0.40;0.33;;;9.00;90.20;;;;;;5054096;28;20625;-77
2023/12/25 05:09:40;;;;;;;0.43;0.43;;;8.80;90.20;;;;;;5048343;28;21165;-77
2023/12/25 05:12:07;;;;;;;0.60;0.60;;;8.90;90.70;;;;;;5045063;28;20627;-78
2023/12/25 05:14:34;;;;;;;0.80;0.50;;;8.90;90.60;;;;;;5056342;28;20636;-77
2023/12/25 05:17:01;;;;;;;0.53;0.53;;;8.80;90.60;;;;;;5047466;28;20640;-77
2023/12/25 05:19:29;;;;;;;0.40;0.40;;;8.80;90.50;;;;;;5044869;28;20620;-77
2023/12/25 05:21:55;;;;;;;0.70;0.43;;;8.80;90.40;;;;;;5041375;28;20630;-78
2023/12/25 05:24:22;;;;;;;0.40;0.30;;;8.80;90.70;;;;;;5047465;28;20666;-77
2023/12/25 05:26:49;;;;;;;1.07;0.57;;;8.80;90.70;;;;;;5048253;28;20725;-77
2023/12/25 05:29:16;;;;;;;0.60;0.47;;;8.80;91.00;;;;;;5053149;28;20650;-77
2023/12/25 05:31:42;;;;;;;0.40;0.23;;;8.70;91.20;;;;;;5039111;28;20627;-77
2023/12/25 05:34:09;;;;;;;0.40;0.40;;;8.80;91.00;;;;;;5045095;28;20636;-77
2023/12/25 05:36:38;;;;;;;0.70;0.70;;;8.70;90.80;;;;;;5040116;28;20632;-78
2023/12/25 05:39:05;;;;;;;0.30;0.30;;;8.70;90.90;;;;;;5037565;28;20625;-77
2023/12/25 05:41:31;;;;;;;0.80;0.50;;;8.80;90.70;;;;;;5039367;28;20631;-76
2023/12/25 05:43:57;;;;;;;0.60;0.40;;;8.80;90.70;;;;;;5044710;28;21253;-76
2023/12/25 05:46:24;;;;;;;1.00;0.60;;;8.70;91.10;;;;;;5045577;28;20218;-77
2023/12/25 05:48:51;;;;;;;0.50;0.47;;;8.70;90.70;;;;;;5046425;27;20646;-75
2023/12/25 05:51:17;;;;;;;0.80;0.40;;;8.70;91.30;;;;;;5045019;27;20634;-75
2023/12/25 05:53:46;;;;;;;0.60;0.57;;;8.70;91.00;;;;;;5037996;28;20635;-79
2023/12/25 05:56:12;;;;;;;2.10;0.67;;;8.60;91.10;;;;;;5040027;28;20628;-74
2023/12/25 05:58:39;;;;;;;0.53;0.30;;;8.60;91.00;;;;;;5023397;27;20639;-75
2023/12/25 06:01:08;;;;;;;1.00;0.70;;;8.60;91.20;;;;;;5026701;28;20627;-74
2023/12/25 06:03:35;;;;;;;0.70;0.60;;;8.70;91.20;;;;;;5036193;28;20622;-75
2023/12/25 06:06:02;;;;;;;0.80;0.50;;;8.50;91.60;;;;;;5032170;28;21027;-74
2023/12/25 06:08:28;;;;;;;0.30;0.20;;;8.50;91.70;;;;;;5049117;28;21051;-74
2023/12/25 06:10:57;;;;;;;0.60;0.60;;;8.60;91.30;;;;;;5041832;28;20628;-74
2023/12/25 06:13:25;;;;;;;0.60;0.40;;;8.70;91.30;;;;;;5055828;28;20782;-74
2023/12/25 06:15:52;;;;;;;0.50;0.50;;;8.70;91.70;;;;;;5059389;28;20630;-74
2023/12/25 06:18:18;;;;;;;0.40;0.40;;;8.60;91.40;;;;;;5054942;28;20727;-74
2023/12/25 06:20:45;;;;;;;0.60;0.60;;;8.60;91.00;;;;;;5049955;28;21105;-74
2023/12/25 06:23:12;;;;;;;0.80;0.80;;;8.60;91.20;;;;;;5059033;27;20614;-74
2023/12/25 06:25:39;;;;;;;1.03;0.77;;;8.60;91.10;;;;;;5048755;28;20672;-75
2023/12/25 06:28:07;;;;;;;0.40;0.40;;;8.60;90.90;;;;;;5044908;28;21167;-74
2023/12/25 06:30:34;;;;;;;1.43;0.90;;;8.60;91.10;;;;;;5052506;28;20631;-75
2023/12/25 06:33:01;;;;;;;0.57;0.57;;;8.60;91.00;;;;;;5050590;27;20714;-75
2023/12/25 06:35:28;;;;;;;0.40;0.30;;;8.60;90.90;;;;;;5049278;28;20625;-74
2023/12/25 06:37:55;;;;;;;1.07;0.80;;;8.60;90.90;;;;;;5057046;28;20842;-74
2023/12/25 06:40:21;;;;;;;0.40;0.40;;;8.50;91.20;;;;;;5045532;28;21194;-74
2023/12/25 06:42:48;;;;;;;1.57;0.70;;;8.50;91.50;;;;;;5046292;28;21178;-75
2023/12/25 06:45:16;;;;;;;0.57;0.40;;;8.40;91.70;;;;;;5049734;28;20657;-75
2023/12/25 06:47:43;;;;;;;0.50;0.50;;;8.50;91.10;;;;;;5043559;28;20986;-75
2023/12/25 06:50:11;;;;;;;2.93;0.63;;;8.40;91.30;;;;;;5048633;28;20626;-75
2023/12/25 06:52:40;;;;;;;0.70;0.70;;;8.50;91.10;;;;;;5047278;28;20630;-75
2023/12/25 06:55:08;;;;;;;0.70;0.50;;;8.40;91.40;;;;;;5041451;28;21023;-74
2023/12/25 06:57:36;;;;;;;0.50;0.50;;;8.40;90.80;;;;;;5038705;28;20639;-74
2023/12/25 07:00:03;;;;;;;0.60;0.50;;;8.40;91.30;;;;;;5043391;28;20666;-74
2023/12/25 07:02:31;;;;;;;1.73;0.90;;;8.40;91.70;;;;;;5042026;27;20631;-74
2023/12/25 07:04:58;;;;;;;1.17;0.80;;;8.40;91.30;;;;;;5044307;28;20671;-74
2023/12/25 07:07:25;;;;;;;0.80;0.47;;;8.40;91.00;;;;;;5042084;28;20972;-74
2023/12/25 07:09:52;;;;;;;0.87;0.80;;;8.40;91.00;;;;;;5057932;28;21174;-75
2023/12/25 07:12:19;;;;;;;0.70;0.47;;;8.40;91.00;;;;;;5053267;28;20657;-75
2023/12/25 07:14:46;;;;;;;0.30;0.30;;;8.40;91.10;;;;;;5048413;28;20629;-74
2023/12/25 07:17:13;;;;;;;0.70;0.47;;;8.40;90.80;;;;;;5050558;28;20629;-75
2023/12/25 07:19:41;;;;;;;0.60;0.60;;;8.30;90.70;;;;;;5049309;28;21309;-74
2023/12/25 07:22:08;;;;;;;0.43;0.40;;;8.30;91.30;;;;;;5048079;28;20622;-75
2023/12/25 07:24:34;;;;;;;3.47;0.77;;;8.20;91.00;;;;;;5048686;28;20671;-75
2023/12/25 07:27:01;;;;;;;0.43;0.40;;;8.20;90.50;;;;;;5053307;28;21155;-74
2023/12/25 07:29:28;;;;;;;0.83;0.40;;;8.20;91.10;;;;;;5049712;28;20665;-75
2023/12/25 07:31:55;;;;;;;2.50;0.87;;;8.20;90.90;;;;;;5051874;28;20937;-75
2023/12/25 07:34:22;;;;;;;0.77;0.63;;;8.20;91.30;;;;;;5052024;28;20623;-74
2023/12/25 07:36:50;;;;;;;0.40;0.33;;;8.30;90.70;;;;;;5044987;28;20730;-75
2023/12/25 07:39:17;;;;;;;0.77;0.77;;;8.30;91.10;;;;;;5053111;28;20628;-75
2023/12/25 07:41:46;;;;;;;0.83;0.50;;;8.30;90.70;;;;;;5044565;28;20627;-74
2023/12/25 07:44:12;;;;;;;0.70;0.70;;;8.30;90.70;;;;;;5043304;28;20626;-74
2023/12/25 07:46:39;;;;;;;0.53;0.53;;;8.40;91.10;;;;;;5044729;28;20666;-74
2023/12/25 07:49:06;;;;;;;0.67;0.67;;;8.40;91.00;;;;;;5043522;28;20638;-74
2023/12/25 07:51:33;;;;;;;0.63;0.63;;;8.30;90.90;;;;;;5040651;28;20627;-74
2023/12/25 07:54:01;;;;;;;0.40;0.40;;;8.40;91.00;;;;;;5043272;27;20636;-74
2023/12/25 07:56:28;;;;;;;0.50;0.50;;;8.40;90.80;;;;;;5043953;28;21070;-73
2023/12/25 07:58:54;;;;;;;0.67;0.60;;;8.40;90.70;;;;;;5044612;28;21076;-74
2023/12/25 08:01:22;;;;;;;0.60;0.60;;;8.50;90.70;;;;;;5040700;28;21161;-74
2023/12/25 08:03:50;;;;;;;0.83;0.73;;;8.40;91.20;;;;;;5046250;27;21042;-73
2023/12/25 08:06:17;;;;;;;0.40;0.40;;;8.30;91.40;;;;;;5036180;28;21016;-74
2023/12/25 08:08:44;;;;;;;1.27;0.70;;;8.30;91.10;;;;;;5051450;28;20952;-74
2023/12/25 08:11:14;;;;;;;0.80;0.50;;;8.40;90.90;;;;;;5041054;28;20623;-74
2023/12/25 08:13:41;;;;;;;0.70;0.70;;;8.40;90.90;;;;;;5043929;28;20633;-75
2023/12/25 08:16:08;;;;;;;0.43;0.33;;;8.40;91.50;;;;;;5053370;28;21191;-74
2023/12/25 08:18:35;;;;;;;1.27;1.17;;;8.50;90.90;;;;;;5043160;28;20625;-75
2023/12/25 08:21:04;;;;;;;0.80;0.67;;;8.60;90.70;;;;;;5048727;28;20628;-74
2023/12/25 08:23:30;;;;;;;0.87;0.70;;;8.60;90.80;;;;;;5049134;28;20684;-74
2023/12/25 08:25:57;;;;;;;0.80;0.57;;;8.60;91.30;;;;;;5046948;28;21041;-74
2023/12/25 08:28:26;;;;;;;0.43;0.43;;;8.60;91.00;;;;;;5051909;28;21142;-74
2023/12/25 08:30:52;;;;;;;2.30;1.20;;;8.50;91.20;;;;;;5049443;28;20626;-74
2023/12/25 08:33:19;;;;;;;0.90;0.60;;;8.60;91.20;;;;;;5052702;28;20626;-74
2023/12/25 08:35:46;;;;;;;0.97;0.97;;;8.60;91.20;;;;;;5043904;28;20630;-74
2023/12/25 08:38:13;;;;;;;0.70;0.70;;;8.70;91.40;;;;;;5054622;28;20630;-74
2023/12/25 08:40:40;;;;;;;0.77;0.70;;;8.70;91.40;;;;;;5044066;28;20629;-74
2023/12/25 08:43:06;;;;;;;0.57;0.50;;;8.80;91.50;;;;;;5052726;27;20631;-75
2023/12/25 08:45:34;;;;;;;1.33;0.77;;;8.80;90.90;;;;;;5043813;28;20663;-75
2023/12/25 08:48:01;;;;;;;0.50;0.50;;;8.80;91.10;;;;;;5052421;28;20645;-74
2023/12/25 08:50:28;;;;;;;1.00;0.90;;;8.90;91.60;;;;;;5044287;28;20623;-75
2023/12/25 08:52:55;;;;;;;1.00;0.73;;;9.00;91.50;;;;;;5049566;28;20632;-74
2023/12/25 08:55:22;;;;;;;0.43;0.40;;;9.00;91.10;;;;;;5040064;27;20629;-74
2023/12/25 08:57:49;;;;;;;1.90;0.83;;;9.00;91.40;;;;;;5034751;28;21242;-75
2023/12/25 09:00:16;;;;;;;1.33;0.90;;;9.10;91.80;;;;;;5033160;28;20644;-74
2023/12/25 09:02:45;;;;;;;0.63;0.50;;;9.10;91.70;;;;;;5033666;28;20640;-77
2023/12/25 09:05:11;;;;;;;0.70;0.70;;;9.20;92.00;;;;;;5039231;28;20708;-75
2023/12/25 09:07:38;;;;;;;0.70;0.60;;;9.30;91.60;;;;;;5035610;28;20745;-76
2023/12/25 09:10:06;;;;;;;0.90;0.80;;;9.30;91.00;;;;;;5050520;27;20752;-75
2023/12/25 09:12:33;;;;;;;0.60;0.60;;;9.30;91.40;;;;;;5066442;27;20226;-74
2023/12/25 09:15:01;;;;;;;1.00;0.90;;;9.40;91.40;;;;;;5076365;27;20727;-82
2023/12/25 09:17:27;;;;;;;2.13;1.63;;;9.40;91.00;;;;;;5059751;28;20636;-77
2023/12/25 09:19:56;;;;;;;0.57;0.57;;;9.30;91.30;;;;;;5051727;28;20687;-77
2023/12/25 09:22:25;;;;;;;1.20;1.10;;;9.40;91.60;;;;;;5056214;27;20656;-77
2023/12/25 09:24:52;;;;;;;2.00;1.50;;;9.40;91.90;;;;;;5051910;27;20634;-83
2023/12/25 09:27:19;;;;;;;1.43;1.00;;;9.40;92.20;;;;;;5033341;28;20633;-73
2023/12/25 09:29:46;;;;;;;0.50;0.50;;;9.40;92.30;;;;;;5036277;28;20632;-74
2023/12/25 09:32:13;;;;;;;0.67;0.63;;;9.30;91.70;;;;;;5080610;27;20623;-76
2023/12/25 09:34:39;;;;;;;0.60;0.50;;;9.30;92.10;;;;;;5063558;27;20628;-75
2023/12/25 09:37:07;;;;;;;0.53;0.53;;;9.40;92.30;;;;;;5038507;28;20702;-75
2023/12/25 09:39:34;;;;;;;0.70;0.70;;;9.40;92.00;;;;;;5041103;27;20628;-76
2023/12/25 09:42:00;;;;;;;0.70;0.70;;;9.50;92.60;;;;;;5056053;27;21308;-75
2023/12/25 09:44:29;;;;;;;2.13;1.10;;;9.60;92.60;;;;;;5038220;27;20637;-75
2023/12/25 09:46:57;;;;;;;0.50;0.50;;;9.70;92.40;;;;;;5036773;28;20673;-76
2023/12/25 09:49:25;;;;;;;0.70;0.53;;;9.80;92.70;;;;;;5032731;28;21044;-76
2023/12/25 09:51:55;;;;;;;0.30;0.30;;;9.70;92.50;;;;;;5034901;28;20635;-75
2023/12/25 09:54:23;;;;;;;0.70;0.70;;;9.70;92.90;;;;;;5042521;28;20633;-84
2023/12/25 09:56:51;;;;;;;1.30;1.03;;;9.70;93.30;;;;;;5040363;28;21192;-75
2023/12/25 09:59:19;;;;;;;1.23;0.80;;;9.80;93.70;;;;;;5033275;27;20620;-75
2023/12/25 10:01:46;;;;;;;1.07;0.87;;;9.90;93.70;;;;;;5034500;28;20732;-75
2023/12/25 10:04:13;;;;;;;1.00;0.70;;;9.90;93.70;;;;;;5037910;28;21176;-75
2023/12/25 10:06:43;;;;;;;0.83;0.80;;;10.00;93.40;;;;;;5034932;27;20674;-75
2023/12/25 10:09:10;;;;;;;0.63;0.63;;;10.00;93.30;;;;;;5044944;28;20731;-75
2023/12/25 10:11:38;;;;;;;0.90;0.43;;;9.90;94.10;;;;;;5049644;28;20629;-75
2023/12/25 10:14:05;;;;;;;1.23;0.80;;;10.10;93.90;;;;;;5057123;28;20669;-75
2023/12/25 10:16:32;;;;;;;0.60;0.60;;;10.10;93.90;;;;;;5056282;28;20625;-75
2023/12/25 10:18:59;;;;;;;0.30;0.30;;;10.00;94.00;;;;;;5041109;28;20640;-75
2023/12/25 10:21:26;;;;;;;0.40;0.40;;;9.80;94.50;;;;;;5047901;28;21008;-75
2023/12/25 10:23:53;;;;;;;0.93;0.77;;;9.80;94.70;;;;;;5031237;28;20633;-75
2023/12/25 10:26:27;;;;;;;6.23;3.37;;;10.00;94.60;;;;;;5041686;28;20678;-75
2023/12/25 10:29:07;;;;;;;0.53;0.53;;;10.00;94.20;;;;;;5045118;27;21459;-75
2023/12/25 10:31:34;;;;;;;0.50;0.40;;;10.00;94.10;;;;;;5039988;28;22073;-77
2023/12/25 10:34:01;;;;;;;0.50;0.30;;;10.10;94.00;;;;;;5042876;28;21228;-70
2023/12/25 10:36:27;;;;;;;0.60;0.40;;;10.20;94.00;;;;;;5041169;28;20754;-77
2023/12/25 10:38:54;;;;;;;4.53;0.73;;;10.30;94.30;;;;;;5037441;28;21503;-80
2023/12/25 10:41:22;;;;;;;0.57;0.57;;;10.40;94.30;;;;;;5040713;28;20645;-80
2023/12/25 10:43:54;;;;;;;1.00;0.70;;;10.50;94.50;;;;;;5031816;28;20630;-77
2023/12/25 10:46:23;;;;;;;0.90;0.77;;;10.40;94.10;;;;;;5041961;28;22337;-78
2023/12/25 10:48:52;;;;;;;0.50;0.50;;;10.50;94.10;;;;;;5035537;28;20650;-79
2023/12/25 10:51:23;;;;;;;0.50;0.50;;;10.60;93.80;;;;;;5030320;28;20727;-81
2023/12/25 10:54:19;;;;;;;0.30;0.30;;;10.60;93.90;;;;;;5035771;27;20615;-81
2023/12/25 10:56:57;;;;;;;0.57;0.30;;;10.60;94.30;;;;;;5034039;27;20631;-82
2023/12/25 10:59:27;;;;;;;1.67;1.23;;;10.80;94.50;;;;;;5032991;27;20753;-80
2023/12/25 11:01:57;;;;;;;0.60;0.50;;;10.60;93.90;;;;;;5025751;27;21072;-80
2023/12/25 11:04:25;;;;;;;0.63;0.40;;;10.70;94.10;;;;;;5030816;27;20669;-80
2023/12/25 11:06:53;;;;;;;0.70;0.60;;;10.70;94.10;;;;;;5028367;28;20702;-80
2023/12/25 11:09:22;;;;;;;0.80;0.33;;;10.70;94.20;;;;;;5030346;27;20630;-80
2023/12/25 11:11:49;;;;;;;2.20;0.70;;;10.60;94.10;;;;;;5035598;27;20630;-79
2023/12/25 11:14:16;;;;;;;5.13;0.70;;;10.80;94.30;;;;;;5031855;27;21262;-79
2023/12/25 11:16:44;;;;;;;3.10;0.70;;;10.80;94.40;;;;;;5040677;28;20935;-79
2023/12/25 11:19:12;;;;;;;0.60;0.60;;;10.90;94.20;;;;;;5048205;27;20642;-80
2023/12/25 11:21:39;;;;;;;1.13;0.47;;;10.90;94.10;;;;;;5039764;27;20630;-82
2023/12/25 11:24:08;;;;;;;1.03;0.67;;;10.90;93.90;;;;;;5053610;27;20650;-79
2023/12/25 11:26:35;;;;;;;0.73;0.40;;;10.80;94.20;;;;;;5053692;28;20680;-76
2023/12/25 11:29:06;;;;;;;0.40;0.40;;;10.80;94.60;;;;;;5057252;27;20735;-86
2023/12/25 11:31:42;;;;;;;0.50;0.40;;;10.90;94.70;;;;;;5054111;27;20622;-74
2023/12/25 11:34:21;;;;;;;0.50;0.50;;;10.70;94.60;;;;;;5044976;27;20660;-77
2023/12/25 11:36:51;;;;;;;0.60;0.60;;;10.60;94.70;;;;;;5036584;27;20630;-75
2023/12/25 11:39:18;;;;;;;0.63;0.63;;;10.50;94.90;;;;;;5065536;27;21471;-82
2023/12/25 11:41:46;;;;;;;0.90;0.73;;;10.50;95.10;;;;;;5046524;27;20626;-78
2023/12/25 11:44:16;;;;;;;0.60;0.50;;;10.50;95.30;;;;;;5041559;27;20632;-75
2023/12/25 11:46:47;;;;;;;0.60;0.50;;;10.50;95.20;;;;;;5042012;28;20673;-73
2023/12/25 11:49:14;;;;;;;0.40;0.40;;;10.60;95.50;;;;;;5038716;28;21173;-74
2023/12/25 11:51:47;;;;;;;0.67;0.63;;;10.80;95.70;;;;;;5045177;28;20950;-76
2023/12/25 11:54:14;;;;;;;0.40;0.30;;;10.60;95.10;;;;;;5042488;28;20625;-80
2023/12/25 11:56:41;;;;;;;0.60;0.40;;;10.60;95.30;;;;;;5040398;28;20630;-75
2023/12/25 11:59:09;;;;;;;0.80;0.67;;;10.60;95.30;;;;;;5031256;28;20997;-76
2023/12/25 12:01:39;;;;;;;0.77;0.53;;;10.50;95.30;;;;;;5021738;27;20647;-75
2023/12/25 12:04:08;;;;;;;0.40;0.30;;;10.50;95.80;;;;;;5018530;27;20633;-76
2023/12/25 12:06:35;;;;;;;0.30;0.20;;;10.50;95.50;;;;;;5032717;27;20669;-77
2023/12/25 12:09:03;;;;;;;0.40;0.40;;;10.40;95.70;;;;;;5030070;27;21350;-75
2023/12/25 12:11:30;;;;;;;1.43;0.90;;;10.50;95.80;;;;;;5037670;27;20637;-75
2023/12/25 12:13:57;;;;;;;0.60;0.47;;;10.60;95.80;;;;;;5034236;27;20652;-86
2023/12/25 12:16:25;;;;;;;0.40;0.30;;;10.50;95.80;;;;;;5038828;27;20694;-84
2023/12/25 12:18:53;;;;;;;0.60;0.37;;;10.50;96.00;;;;;;5037564;27;20615;-76
2023/12/25 12:21:20;;;;;;;0.60;0.43;;;10.40;96.00;;;;;;5036660;28;20633;-77
2023/12/25 12:23:47;;;;;;;0.50;0.40;;;10.40;96.20;;;;;;5041334;27;21010;-79
2023/12/25 12:26:17;;;;;;;0.40;0.33;;;10.40;96.10;;;;;;5038375;28;20758;-76
2023/12/25 12:28:44;;;;;;;0.50;0.50;;;10.40;96.10;;;;;;5037463;28;20761;-76
2023/12/25 12:31:11;;;;;;;1.23;0.50;;;10.40;96.50;;;;;;5050673;28;21168;-75
2023/12/25 12:33:38;;;;;;;0.60;0.40;;;10.40;96.40;;;;;;5051058;27;20633;-77
2023/12/25 12:36:05;;;;;;;0.40;0.40;;;10.50;96.60;;;;;;5054534;28;20672;-78
2023/12/25 12:38:33;;;;;;;0.50;0.40;;;10.60;96.70;;;;;;5040602;28;20622;-72
2023/12/25 12:41:01;;;;;;;1.37;0.40;;;10.50;96.50;;;;;;5048581;27;21162;-72
2023/12/25 12:43:30;;;;;;;0.50;0.30;;;10.60;96.70;;;;;;5048452;27;20637;-72
2023/12/25 12:45:57;;;;;;;0.57;0.30;;;10.60;96.70;;;;;;5049118;28;21048;-76
2023/12/25 12:48:23;;;;;;;0.60;0.60;;;10.50;96.80;;;;;;5033475;28;21225;-76
2023/12/25 12:50:50;;;;;;;0.90;0.53;;;10.40;97.20;;;;;;5041734;28;21203;-78
2023/12/25 12:53:17;;;;;;;0.40;0.30;;;10.40;97.10;;;;;;5045240;27;20723;-75
2023/12/25 12:55:44;;;;;;;0.50;0.30;;;10.50;97.30;;;;;;5050946;27;20628;-77